createdAt,value
2018-04-09T00:00:11.270Z,100096.66
2018-04-09T00:02:39.638Z,100090.03
2018-04-09T00:05:08.004Z,100104.48
2018-04-09T00:07:36.788Z,100102.22
2018-04-09T00:10:05.604Z,100093.94
2018-04-09T00:12:33.980Z,100086.92
2018-04-09T00:15:02.339Z,100082.98
2018-04-09T00:17:31.149Z,100078.17
2018-04-09T00:19:59.509Z,100088.80
2018-04-09T00:22:28.355Z,100090.34
2018-04-09T00:24:56.708Z,100086.72
2018-04-09T00:27:25.126Z,100084.36
2018-04-09T00:29:53.480Z,100079.27
2018-04-09T00:32:21.848Z,100085.34
2018-04-09T00:34:50.209Z,100084.59
2018-04-09T00:37:18.696Z,100078.61
2018-04-09T00:39:47.117Z,100080.38
2018-04-09T00:42:15.496Z,100088.72
2018-04-09T00:44:43.865Z,100085.91
2018-04-09T00:47:12.359Z,100087.28
2018-04-09T00:49:40.712Z,100085.58
2018-04-09T00:52:09.096Z,100083.67
2018-04-09T00:54:37.471Z,100082.73
2018-04-09T00:57:05.853Z,100078.92
2018-04-09T00:59:34.211Z,100084.12
2018-04-09T01:02:02.592Z,100080.58
2018-04-09T01:04:30.976Z,100073.17
2018-04-09T01:06:59.349Z,100081.08
2018-04-09T01:09:27.699Z,100084.20
2018-04-09T01:11:56.459Z,100081.56
2018-04-09T01:14:24.824Z,100069.47
2018-04-09T01:16:53.206Z,100074.13
2018-04-09T01:19:21.646Z,100074.19
2018-04-09T01:21:50.070Z,100075.20
2018-04-09T01:24:18.424Z,100074.92
2018-04-09T01:26:46.795Z,100071.05
2018-04-09T01:29:15.208Z,100073.03
2018-04-09T01:31:43.579Z,100070.28
2018-04-09T01:34:11.954Z,100072.81
2018-04-09T01:36:40.326Z,100073.50
2018-04-09T01:39:09.427Z,100077.28
2018-04-09T01:41:37.817Z,100069.34
2018-04-09T01:44:06.194Z,100063.13
2018-04-09T01:46:34.584Z,100061.83
2018-04-09T01:49:02.947Z,100051.64
2018-04-09T01:51:32.149Z,100049.93
2018-04-09T01:54:00.518Z,100062.12
2018-04-09T01:56:28.896Z,100055.00
2018-04-09T01:58:57.275Z,100052.80
2018-04-09T02:01:25.660Z,100053.30
2018-04-09T02:03:54.031Z,100059.17
2018-04-09T02:06:22.412Z,100063.31
2018-04-09T02:08:50.786Z,100063.41
2018-04-09T02:11:19.172Z,100055.25
2018-04-09T02:13:47.531Z,100053.19
2018-04-09T02:16:15.927Z,100062.33
2018-04-09T02:18:44.301Z,100048.71
2018-04-09T02:21:12.688Z,100054.88
2018-04-09T02:23:41.064Z,100049.62
2018-04-09T02:26:09.423Z,100053.70
2018-04-09T02:28:37.805Z,100046.33
2018-04-09T02:31:06.173Z,100043.83
2018-04-09T02:33:34.563Z,100035.42
2018-04-09T02:36:02.953Z,100033.73
2018-04-09T02:38:31.321Z,100030.91
2018-04-09T02:40:59.713Z,100027.51
2018-04-09T02:43:28.086Z,100021.78
2018-04-09T02:45:56.449Z,100016.56
2018-04-09T02:48:24.816Z,100019.78
2018-04-09T02:50:53.197Z,100019.80
2018-04-09T02:53:21.609Z,100016.70
2018-04-09T02:55:49.965Z,100009.48
2018-04-09T02:58:18.342Z,100010.36
2018-04-09T03:00:46.735Z,100013.47
2018-04-09T03:03:15.200Z,100015.59
2018-04-09T03:05:43.572Z,100023.86
2018-04-09T03:08:11.933Z,100020.82
2018-04-09T03:10:40.712Z,100027.59
2018-04-09T03:13:09.472Z,100026.27
2018-04-09T03:15:37.918Z,100032.63
2018-04-09T03:18:06.316Z,100027.61
2018-04-09T03:20:34.671Z,100019.73
2018-04-09T03:23:03.036Z,100015.91
2018-04-09T03:25:32.223Z,100006.81
2018-04-09T03:28:01.017Z,100014.24
2018-04-09T03:30:29.377Z,100014.23
2018-04-09T03:32:58.161Z,100015.61
2018-04-09T03:35:26.530Z,100021.48
2018-04-09T03:37:54.919Z,100031.82
2018-04-09T03:40:23.775Z,100024.34
2018-04-09T03:42:52.126Z,100018.60
2018-04-09T03:45:20.505Z,100024.75
2018-04-09T03:47:48.881Z,100030.25
2018-04-09T03:50:17.239Z,100032.06
2018-04-09T03:52:45.617Z,100028.36
2018-04-09T03:55:14.396Z,100030.04
2018-04-09T03:57:43.209Z,100028.28
2018-04-09T04:00:11.568Z,100027.52
2018-04-09T04:02:40.351Z,100030.02
2018-04-09T04:05:09.115Z,100027.88
2018-04-09T04:07:38.199Z,100028.49
2018-04-09T04:10:07.024Z,100026.47
2018-04-09T04:12:35.784Z,100019.87
2018-04-09T04:15:04.156Z,100032.21
2018-04-09T04:17:50.404Z,100030.98
2018-04-09T04:20:37.040Z,100033.97
2018-04-09T04:23:05.428Z,100035.14
2018-04-09T04:25:33.792Z,100030.41
2018-04-09T04:28:02.168Z,100030.03
2018-04-09T04:30:30.561Z,100025.50
2018-04-09T04:32:58.926Z,100022.33
2018-04-09T04:35:27.288Z,100026.38
2018-04-09T04:37:55.673Z,100040.55
2018-04-09T04:40:24.088Z,100040.22
2018-04-09T04:42:52.445Z,100038.73
2018-04-09T04:45:20.877Z,100030.16
2018-04-09T04:47:49.236Z,100041.83
2018-04-09T04:50:17.604Z,100047.05
2018-04-09T04:52:45.980Z,100053.08
2018-04-09T04:55:14.335Z,100058.81
2018-04-09T04:57:42.691Z,100053.84
2018-04-09T05:00:11.216Z,100056.05
2018-04-09T05:02:39.577Z,100054.54
2018-04-09T05:05:07.947Z,100060.16
2018-04-09T05:07:36.351Z,100055.22
2018-04-09T05:10:04.728Z,100058.86
2018-04-09T05:12:33.100Z,100057.47
2018-04-09T05:15:01.526Z,100056.31
2018-04-09T05:17:29.917Z,100057.00
2018-04-09T05:19:58.275Z,100060.46
2018-04-09T05:22:26.716Z,100071.67
2018-04-09T05:24:55.065Z,100067.47
2018-04-09T05:27:23.441Z,100068.55
2018-04-09T05:29:52.239Z,100062.77
2018-04-09T05:32:20.608Z,100068.30
2018-04-09T05:34:49.368Z,100065.07
2018-04-09T05:37:17.796Z,100062.53
2018-04-09T05:39:46.168Z,100068.80
2018-04-09T05:42:14.542Z,100059.72
2018-04-09T05:44:42.919Z,100052.58
2018-04-09T05:47:11.276Z,100059.77
2018-04-09T05:49:40.073Z,100070.85
2018-04-09T05:52:08.841Z,100068.13
2018-04-09T05:54:37.196Z,100067.94
2018-04-09T05:57:05.580Z,100061.99
2018-04-09T05:59:33.944Z,100059.67
2018-04-09T06:02:02.303Z,100057.48
2018-04-09T06:04:30.684Z,100060.22
2018-04-09T06:06:59.040Z,100055.05
2018-04-09T06:09:27.795Z,100059.91
2018-04-09T06:11:56.227Z,100054.72
2018-04-09T06:14:24.619Z,100058.27
2018-04-09T06:16:52.986Z,100059.05
2018-04-09T06:19:21.410Z,100067.98
2018-04-09T06:21:49.768Z,100065.36
2018-04-09T06:24:18.133Z,100072.31
2018-04-09T06:26:46.515Z,100075.42
